Time;durP1;ratioP1;P1;durP2;ratioP2;P2;SDS_P1;SDS_P2;PMS_P1;PMS_P2;Temp;Humidity;BMP_temperature;BMP_pressure;BME280_temperature;BME280_humidity;BME280_pressure;Samples;Min_cycle;Max_cycle;Signal;HPM_P1;HPM_P2
2023/04/02 00:01:55;;;;;;;;;;;;;;;;;;4437478;32;19933;-75
2023/04/02 00:04:25;;;;;;;;;;;;;;;;;;4437493;32;19947;-76
2023/04/02 00:06:53;;;;;;;;;;;;;;;;;;4425171;32;20299;-76
2023/04/02 00:09:18;;;;;;;;;;;;;;;;;;4425570;32;19994;-77
2023/04/02 00:11:43;;;;;;;;;;;;;;;;;;4427108;32;19937;-76
2023/04/02 00:14:08;;;;;;;;;;;;;;;;;;4444032;32;19937;-76
2023/04/02 00:16:33;;;;;;;;;;;;;;;;;;4441496;32;19932;-76
2023/04/02 00:18:58;;;;;;;;;;;;;;;;;;4427389;32;19989;-76
2023/04/02 00:21:24;;;;;;;;;;;;;;;;;;4442269;32;20257;-76
2023/04/02 00:23:49;;;;;;;;;;;;;;;;;;4427474;32;19980;-76
2023/04/02 00:26:14;;;;;;;;;;;;;;;;;;4440557;32;19932;-77
2023/04/02 00:28:39;;;;;;;;;;;;;;;;;;4440700;32;19937;-76
2023/04/02 00:31:04;;;;;;;;;;;;;;;;;;4426233;32;19933;-76
2023/04/02 00:33:30;;;;;;;;;;;;;;;;;;4428053;32;19986;-77
2023/04/02 00:35:55;;;;;;;;;;;;;;;;;;4426930;32;20296;-75
2023/04/02 00:38:20;;;;;;;;;;;;;;;;;;4441638;32;20269;-76
2023/04/02 00:40:45;;;;;;;;;;;;;;;;;;4438658;32;19946;-76
2023/04/02 00:43:15;;;;;;;;;;;;;;;;;;4424286;32;20421;-77
2023/04/02 00:45:40;;;;;;;;;;;;;;;;;;4426934;32;20257;-77
2023/04/02 00:48:05;;;;;;;;;;;;;;;;;;4440797;32;20321;-76
2023/04/02 00:50:30;;;;;;;;;;;;;;;;;;4424720;32;20349;-76
2023/04/02 00:52:56;;;;;;;;;;;;;;;;;;4438405;32;19944;-76
2023/04/02 00:55:22;;;;;;;;;;;;;;;;;;4439485;32;19937;-76
2023/04/02 00:57:47;;;;;;;;;;;;;;;;;;4423305;32;19940;-76
2023/04/02 01:00:12;;;;;;;;;;;;;;;;;;4413988;32;19933;-76
2023/04/02 01:02:39;;;;;;;;;;;;;;;;;;4425080;32;20276;-77
2023/04/02 01:05:04;;;;;;;;;;;;;;;;;;4427300;32;19941;-76
2023/04/02 01:07:29;;;;;;;;;;;;;;;;;;4426662;32;19994;-76
2023/04/02 01:09:55;;;;;;;;;;;;;;;;;;4413601;32;20323;-76
2023/04/02 01:12:20;;;;;;;;;;;;;;;;;;4416445;32;19985;-76
2023/04/02 01:14:45;;;;;;;;;;;;;;;;;;4428584;32;19973;-75
2023/04/02 01:17:10;;;;;;;;;;;;;;;;;;4427113;32;19944;-75
2023/04/02 01:19:35;;;;;;;;;;;;;;;;;;4423393;32;20303;-76
2023/04/02 01:22:00;;;;;;;;;;;;;;;;;;4422185;32;19942;-76
2023/04/02 01:24:27;;;;;;;;;;;;;;;;;;4421832;32;19947;-77
2023/04/02 01:26:52;;;;;;;;;;;;;;;;;;4421107;32;19982;-76
2023/04/02 01:29:17;;;;;;;;;;;;;;;;;;4421182;32;19945;-76
2023/04/02 01:31:42;;;;;;;;;;;;;;;;;;4406950;32;19937;-76
2023/04/02 01:34:07;;;;;;;;;;;;;;;;;;4421592;32;20294;-75
2023/04/02 01:36:32;;;;;;;;;;;;;;;;;;4420933;32;19937;-75
2023/04/02 01:38:57;;;;;;;;;;;;;;;;;;4421575;32;20208;-75
2023/04/02 01:41:22;;;;;;;;;;;;;;;;;;4420853;32;19933;-75
2023/04/02 01:43:47;;;;;;;;;;;;;;;;;;4406861;32;19944;-77
2023/04/02 01:46:13;;;;;;;;;;;;;;;;;;4421553;32;19951;-76
2023/04/02 01:48:38;;;;;;;;;;;;;;;;;;4421787;32;19936;-76
2023/04/02 01:51:04;;;;;;;;;;;;;;;;;;4420497;32;20005;-76
2023/04/02 01:53:29;;;;;;;;;;;;;;;;;;4420810;32;19985;-77
2023/04/02 01:55:54;;;;;;;;;;;;;;;;;;4420844;32;19956;-77
2023/04/02 01:58:19;;;;;;;;;;;;;;;;;;4406820;32;20028;-77
2023/04/02 02:00:44;;;;;;;;;;;;;;;;;;4420918;32;19949;-77
2023/04/02 02:03:09;;;;;;;;;;;;;;;;;;4406469;32;20024;-76
2023/04/02 02:05:35;;;;;;;;;;;;;;;;;;4421474;32;19955;-77
2023/04/02 02:08:00;;;;;;;;;;;;;;;;;;4420653;32;19972;-77
2023/04/02 02:10:25;;;;;;;;;;;;;;;;;;4407020;32;20274;-76
2023/04/02 02:12:50;;;;;;;;;;;;;;;;;;4420534;32;19988;-76
2023/04/02 02:15:15;;;;;;;;;;;;;;;;;;4421574;32;19975;-77
2023/04/02 02:17:41;;;;;;;;;;;;;;;;;;4421388;32;19938;-76
2023/04/02 02:20:10;;;;;;;;;;;;;;;;;;4409814;32;20371;-75
2023/04/02 02:22:36;;;;;;;;;;;;;;;;;;4424118;32;19967;-78
2023/04/02 02:25:01;;;;;;;;;;;;;;;;;;4424995;32;20321;-76
2023/04/02 02:27:26;;;;;;;;;;;;;;;;;;4440858;32;19940;-75
2023/04/02 02:29:51;;;;;;;;;;;;;;;;;;4439943;32;19936;-75
2023/04/02 02:32:16;;;;;;;;;;;;;;;;;;4454075;32;19940;-76
2023/04/02 02:34:41;;;;;;;;;;;;;;;;;;4440282;32;19936;-76
2023/04/02 02:37:06;;;;;;;;;;;;;;;;;;4442327;32;19976;-76
2023/04/02 02:39:31;;;;;;;;;;;;;;;;;;4439991;32;19969;-75
2023/04/02 02:41:57;;;;;;;;;;;;;;;;;;4439672;32;20313;-77
2023/04/02 02:44:22;;;;;;;;;;;;;;;;;;4439515;32;19947;-76
2023/04/02 02:46:47;;;;;;;;;;;;;;;;;;4439457;32;20029;-76
2023/04/02 02:49:12;;;;;;;;;;;;;;;;;;4439508;32;19940;-76
2023/04/02 02:51:37;;;;;;;;;;;;;;;;;;4453840;32;19932;-76
2023/04/02 02:54:02;;;;;;;;;;;;;;;;;;4440364;32;20284;-76
2023/04/02 02:56:27;;;;;;;;;;;;;;;;;;4453450;32;19964;-76
2023/04/02 02:58:52;;;;;;;;;;;;;;;;;;4439423;32;19936;-77
2023/04/02 03:01:17;;;;;;;;;;;;;;;;;;4439402;32;19948;-75
2023/04/02 03:03:43;;;;;;;;;;;;;;;;;;4453311;32;19940;-76
2023/04/02 03:06:08;;;;;;;;;;;;;;;;;;4439344;32;19943;-76
2023/04/02 03:08:33;;;;;;;;;;;;;;;;;;4454548;32;19974;-77
2023/04/02 03:10:58;;;;;;;;;;;;;;;;;;4439017;32;20484;-77
2023/04/02 03:13:24;;;;;;;;;;;;;;;;;;4453697;32;19941;-75
2023/04/02 03:15:49;;;;;;;;;;;;;;;;;;4439194;32;19971;-76
2023/04/02 03:18:14;;;;;;;;;;;;;;;;;;4442220;32;19966;-77
2023/04/02 03:20:39;;;;;;;;;;;;;;;;;;4457092;32;20002;-76
2023/04/02 03:23:05;;;;;;;;;;;;;;;;;;4444656;32;19945;-76
2023/04/02 03:25:30;;;;;;;;;;;;;;;;;;4455363;32;20329;-76
2023/04/02 03:27:55;;;;;;;;;;;;;;;;;;4454884;32;19951;-76
2023/04/02 03:30:20;;;;;;;;;;;;;;;;;;4440216;32;19972;-76
2023/04/02 03:32:45;;;;;;;;;;;;;;;;;;4454217;32;19933;-76
2023/04/02 03:35:10;;;;;;;;;;;;;;;;;;4439587;32;19976;-76
2023/04/02 03:37:35;;;;;;;;;;;;;;;;;;4439804;32;20343;-76
2023/04/02 03:40:00;;;;;;;;;;;;;;;;;;4455595;32;19948;-76
2023/04/02 03:42:25;;;;;;;;;;;;;;;;;;4440287;32;19933;-76
2023/04/02 03:44:51;;;;;;;;;;;;;;;;;;4439530;32;19951;-76
2023/04/02 03:47:16;;;;;;;;;;;;;;;;;;4454248;32;19989;-75
2023/04/02 03:49:41;;;;;;;;;;;;;;;;;;4439546;32;19940;-77
2023/04/02 03:52:06;;;;;;;;;;;;;;;;;;4452818;32;19937;-77
2023/04/02 03:54:31;;;;;;;;;;;;;;;;;;4438451;32;19980;-76
2023/04/02 03:56:56;;;;;;;;;;;;;;;;;;4453343;32;19988;-76
2023/04/02 03:59:21;;;;;;;;;;;;;;;;;;4453607;32;19928;-75
2023/04/02 04:01:46;;;;;;;;;;;;;;;;;;4438579;32;19974;-75
2023/04/02 04:04:12;;;;;;;;;;;;;;;;;;4453351;32;19932;-75
2023/04/02 04:06:37;;;;;;;;;;;;;;;;;;4439384;32;19962;-76
2023/04/02 04:09:02;;;;;;;;;;;;;;;;;;4453449;32;19944;-77
2023/04/02 04:11:27;;;;;;;;;;;;;;;;;;4435522;32;19995;-77
2023/04/02 04:13:53;;;;;;;;;;;;;;;;;;4437302;32;19951;-76
2023/04/02 04:16:18;;;;;;;;;;;;;;;;;;4435608;32;20300;-76
2023/04/02 04:18:43;;;;;;;;;;;;;;;;;;4437021;32;20294;-77
2023/04/02 04:21:10;;;;;;;;;;;;;;;;;;4435488;32;19936;-76
2023/04/02 04:23:35;;;;;;;;;;;;;;;;;;4435478;32;19933;-75
2023/04/02 04:26:08;;;;;;;;;;;;;;;;;;4436276;32;19971;-76
2023/04/02 04:28:37;;;;;;;;;;;;;;;;;;4436268;32;20276;-77
2023/04/02 04:31:02;;;;;;;;;;;;;;;;;;4435356;32;19937;-77
2023/04/02 04:33:33;;;;;;;;;;;;;;;;;;4435716;32;19969;-76
2023/04/02 04:35:58;;;;;;;;;;;;;;;;;;4437017;32;20366;-76
2023/04/02 04:38:26;;;;;;;;;;;;;;;;;;4436324;32;20273;-76
2023/04/02 04:40:52;;;;;;;;;;;;;;;;;;4436633;32;19967;-76
2023/04/02 04:43:17;;;;;;;;;;;;;;;;;;4435528;32;20295;-76
2023/04/02 04:45:43;;;;;;;;;;;;;;;;;;4436975;32;19994;-76
2023/04/02 04:48:08;;;;;;;;;;;;;;;;;;4435098;32;19973;-76
2023/04/02 04:50:33;;;;;;;;;;;;;;;;;;4435426;32;19951;-77
2023/04/02 04:52:58;;;;;;;;;;;;;;;;;;4436587;32;19980;-76
2023/04/02 04:55:23;;;;;;;;;;;;;;;;;;4434961;32;20354;-76
2023/04/02 04:57:48;;;;;;;;;;;;;;;;;;4435902;32;20250;-76
2023/04/02 05:00:14;;;;;;;;;;;;;;;;;;4435484;32;20381;-77
2023/04/02 05:02:39;;;;;;;;;;;;;;;;;;4436385;32;19972;-77
2023/04/02 05:05:04;;;;;;;;;;;;;;;;;;4435729;32;20287;-75
2023/04/02 05:07:30;;;;;;;;;;;;;;;;;;4434790;32;20036;-76
2023/04/02 05:09:55;;;;;;;;;;;;;;;;;;4441983;32;19970;-76
2023/04/02 05:12:20;;;;;;;;;;;;;;;;;;4451564;32;20293;-75
2023/04/02 05:14:45;;;;;;;;;;;;;;;;;;4437338;32;19943;-76
2023/04/02 05:17:10;;;;;;;;;;;;;;;;;;4437888;32;20000;-76
2023/04/02 05:19:35;;;;;;;;;;;;;;;;;;4437547;32;19936;-77
2023/04/02 05:22:00;;;;;;;;;;;;;;;;;;4452136;32;19980;-75
2023/04/02 05:24:26;;;;;;;;;;;;;;;;;;4438899;32;20273;-76
2023/04/02 05:26:51;;;;;;;;;;;;;;;;;;4439375;32;19933;-75
2023/04/02 05:29:16;;;;;;;;;;;;;;;;;;4441027;32;19939;-76
2023/04/02 05:31:41;;;;;;;;;;;;;;;;;;4440086;32;19940;-76
2023/04/02 05:34:06;;;;;;;;;;;;;;;;;;4439755;32;19973;-77
2023/04/02 05:36:31;;;;;;;;;;;;;;;;;;4438544;32;19941;-76
2023/04/02 05:38:57;;;;;;;;;;;;;;;;;;4437767;32;19962;-76
2023/04/02 05:41:22;;;;;;;;;;;;;;;;;;4437257;32;20257;-76
2023/04/02 05:43:47;;;;;;;;;;;;;;;;;;4437231;32;19972;-76
2023/04/02 05:46:12;;;;;;;;;;;;;;;;;;4452598;32;19948;-77
2023/04/02 05:48:37;;;;;;;;;;;;;;;;;;4437640;32;19937;-77
2023/04/02 05:51:03;;;;;;;;;;;;;;;;;;4437275;32;19952;-76
2023/04/02 05:53:28;;;;;;;;;;;;;;;;;;4451918;32;19940;-76
2023/04/02 05:55:54;;;;;;;;;;;;;;;;;;4440080;32;19951;-76
2023/04/02 05:58:20;;;;;;;;;;;;;;;;;;4454323;32;19971;-76
2023/04/02 06:00:46;;;;;;;;;;;;;;;;;;4455409;32;20293;-77
2023/04/02 06:03:11;;;;;;;;;;;;;;;;;;4441648;32;19928;-77
2023/04/02 06:05:36;;;;;;;;;;;;;;;;;;4456976;32;19937;-76
2023/04/02 06:08:01;;;;;;;;;;;;;;;;;;4441901;32;19932;-76
2023/04/02 06:10:26;;;;;;;;;;;;;;;;;;4440912;32;20003;-76
2023/04/02 06:12:51;;;;;;;;;;;;;;;;;;4443288;32;19951;-76
2023/04/02 06:15:17;;;;;;;;;;;;;;;;;;4441485;32;19944;-76
2023/04/02 06:17:42;;;;;;;;;;;;;;;;;;4440815;32;20321;-76
2023/04/02 06:20:08;;;;;;;;;;;;;;;;;;4454289;32;19947;-75
2023/04/02 06:22:33;;;;;;;;;;;;;;;;;;4455488;32;20302;-76
2023/04/02 06:24:58;;;;;;;;;;;;;;;;;;4453963;32;20317;-76
2023/04/02 06:27:24;;;;;;;;;;;;;;;;;;4440440;32;19992;-76
2023/04/02 06:29:51;;;;;;;;;;;;;;;;;;4454205;32;20330;-76
2023/04/02 06:32:16;;;;;;;;;;;;;;;;;;4453721;32;19980;-76
2023/04/02 06:34:41;;;;;;;;;;;;;;;;;;4453796;32;19936;-77
2023/04/02 06:37:06;;;;;;;;;;;;;;;;;;4454300;32;19937;-76
2023/04/02 06:39:32;;;;;;;;;;;;;;;;;;4453521;32;20387;-76
2023/04/02 06:41:57;;;;;;;;;;;;;;;;;;4453433;32;20004;-76
2023/04/02 06:44:22;;;;;;;;;;;;;;;;;;4439492;32;19946;-76
2023/04/02 06:46:47;;;;;;;;;;;;;;;;;;4455185;32;19968;-77
2023/04/02 06:49:13;;;;;;;;;;;;;;;;;;4439307;32;19985;-76
2023/04/02 06:51:38;;;;;;;;;;;;;;;;;;4453640;32;20289;-77
2023/04/02 06:54:03;;;;;;;;;;;;;;;;;;4439878;32;19967;-77
2023/04/02 06:56:28;;;;;;;;;;;;;;;;;;4439987;32;19936;-77
2023/04/02 06:58:53;;;;;;;;;;;;;;;;;;4455400;32;19995;-76
2023/04/02 07:01:18;;;;;;;;;;;;;;;;;;4454291;32;19947;-76
2023/04/02 07:03:43;;;;;;;;;;;;;;;;;;4439645;32;19937;-75
2023/04/02 07:06:09;;;;;;;;;;;;;;;;;;4455690;32;19972;-77
2023/04/02 07:08:34;;;;;;;;;;;;;;;;;;4428886;32;19941;-77
2023/04/02 07:10:59;;;;;;;;;;;;;;;;;;4422524;32;19983;-77
2023/04/02 07:13:24;;;;;;;;;;;;;;;;;;4409342;32;19941;-77
2023/04/02 07:15:49;;;;;;;;;;;;;;;;;;4422384;32;19998;-76
2023/04/02 07:18:15;;;;;;;;;;;;;;;;;;4422397;32;20258;-76
2023/04/02 07:20:40;;;;;;;;;;;;;;;;;;4408358;32;19945;-77
2023/04/02 07:23:05;;;;;;;;;;;;;;;;;;4422361;32;20329;-77
2023/04/02 07:25:30;;;;;;;;;;;;;;;;;;4422154;32;20309;-78
2023/04/02 07:27:55;;;;;;;;;;;;;;;;;;4408528;32;19940;-76
2023/04/02 07:30:20;;;;;;;;;;;;;;;;;;4422067;32;19986;-77
2023/04/02 07:32:46;;;;;;;;;;;;;;;;;;4408666;32;19933;-77
2023/04/02 07:35:11;;;;;;;;;;;;;;;;;;4424870;32;19933;-76
2023/04/02 07:37:37;;;;;;;;;;;;;;;;;;4425003;32;19991;-76
2023/04/02 07:40:03;;;;;;;;;;;;;;;;;;4422687;32;19933;-77
2023/04/02 07:42:28;;;;;;;;;;;;;;;;;;4421879;32;19948;-77
2023/04/02 07:44:53;;;;;;;;;;;;;;;;;;4421853;32;19951;-75
2023/04/02 07:47:18;;;;;;;;;;;;;;;;;;4421963;32;19951;-76
2023/04/02 07:49:43;;;;;;;;;;;;;;;;;;4408539;32;19971;-77
2023/04/02 07:52:08;;;;;;;;;;;;;;;;;;4422510;32;19990;-76
2023/04/02 07:54:34;;;;;;;;;;;;;;;;;;4410059;32;19941;-76
2023/04/02 07:56:59;;;;;;;;;;;;;;;;;;4408362;32;19937;-77
2023/04/02 07:59:25;;;;;;;;;;;;;;;;;;4421808;32;19945;-76
2023/04/02 08:01:50;;;;;;;;;;;;;;;;;;4407892;32;19979;-76
2023/04/02 08:04:15;;;;;;;;;;;;;;;;;;4421593;32;19959;-76
2023/04/02 08:06:40;;;;;;;;;;;;;;;;;;4422203;32;20327;-76
2023/04/02 08:09:06;;;;;;;;;;;;;;;;;;4408041;32;19955;-76
2023/04/02 08:11:31;;;;;;;;;;;;;;;;;;4428978;32;19970;-77
2023/04/02 08:13:56;;;;;;;;;;;;;;;;;;4437614;32;19937;-77
2023/04/02 08:16:22;;;;;;;;;;;;;;;;;;4426269;32;19957;-77
2023/04/02 08:18:49;;;;;;;;;;;;;;;;;;4421672;32;20243;-77
2023/04/02 08:21:14;;;;;;;;;;;;;;;;;;4422821;32;19937;-76
2023/04/02 08:23:41;;;;;;;;;;;;;;;;;;4423474;32;19995;-76
2023/04/02 08:26:06;;;;;;;;;;;;;;;;;;4423708;32;19930;-77
2023/04/02 08:28:31;;;;;;;;;;;;;;;;;;4424245;32;20260;-76
2023/04/02 08:30:56;;;;;;;;;;;;;;;;;;4423680;32;19951;-77
2023/04/02 08:33:22;;;;;;;;;;;;;;;;;;4422801;32;19970;-76
2023/04/02 08:35:47;;;;;;;;;;;;;;;;;;4426529;32;20265;-77
2023/04/02 08:38:13;;;;;;;;;;;;;;;;;;4437043;32;19951;-78
2023/04/02 08:40:38;;;;;;;;;;;;;;;;;;4423301;32;19946;-77
2023/04/02 08:43:03;;;;;;;;;;;;;;;;;;4437005;32;19937;-76
2023/04/02 08:45:28;;;;;;;;;;;;;;;;;;4417684;32;19997;-77
2023/04/02 08:47:54;;;;;;;;;;;;;;;;;;4407944;32;20289;-77
2023/04/02 08:50:20;;;;;;;;;;;;;;;;;;4422034;32;19966;-77
2023/04/02 08:52:45;;;;;;;;;;;;;;;;;;4422099;32;19937;-78
2023/04/02 08:55:10;;;;;;;;;;;;;;;;;;4422586;32;20019;-77
2023/04/02 08:57:36;;;;;;;;;;;;;;;;;;4424309;32;19940;-78
2023/04/02 09:00:01;;;;;;;;;;;;;;;;;;4413006;32;19991;-75
2023/04/02 09:02:26;;;;;;;;;;;;;;;;;;4426565;32;20306;-75
2023/04/02 09:04:52;;;;;;;;;;;;;;;;;;4409884;32;19933;-76
2023/04/02 09:07:17;;;;;;;;;;;;;;;;;;4424388;32;19940;-77
2023/04/02 09:09:42;;;;;;;;;;;;;;;;;;4424640;32;19938;-76
2023/04/02 09:12:07;;;;;;;;;;;;;;;;;;4421801;32;20060;-77
2023/04/02 09:14:32;;;;;;;;;;;;;;;;;;4424877;32;19948;-77
2023/04/02 09:16:57;;;;;;;;;;;;;;;;;;4424518;32;19948;-76
2023/04/02 09:19:22;;;;;;;;;;;;;;;;;;4427566;32;19947;-76
2023/04/02 09:21:47;;;;;;;;;;;;;;;;;;4427436;32;19941;-77
2023/04/02 09:24:13;;;;;;;;;;;;;;;;;;4426887;32;20330;-77
2023/04/02 09:26:38;;;;;;;;;;;;;;;;;;4426041;32;19974;-77
2023/04/02 09:29:03;;;;;;;;;;;;;;;;;;4425767;32;19945;-78
2023/04/02 09:31:28;;;;;;;;;;;;;;;;;;4427157;32;19945;-77
2023/04/02 09:33:53;;;;;;;;;;;;;;;;;;4427488;32;19937;-76
2023/04/02 09:36:18;;;;;;;;;;;;;;;;;;4427407;32;19977;-77
2023/04/02 09:38:44;;;;;;;;;;;;;;;;;;4432680;32;19941;-76
2023/04/02 09:41:09;;;;;;;;;;;;;;;;;;4430672;32;20255;-76
2023/04/02 09:43:34;;;;;;;;;;;;;;;;;;4436591;32;19933;-76
2023/04/02 09:45:59;;;;;;;;;;;;;;;;;;4429018;32;19972;-78
2023/04/02 09:48:24;;;;;;;;;;;;;;;;;;4423542;32;19987;-75
2023/04/02 09:50:50;;;;;;;;;;;;;;;;;;4422005;32;20092;-78
2023/04/02 09:53:15;;;;;;;;;;;;;;;;;;4422138;32;19953;-76
2023/04/02 09:55:40;;;;;;;;;;;;;;;;;;4427880;32;19976;-76
2023/04/02 09:58:06;;;;;;;;;;;;;;;;;;4434381;32;19989;-76
2023/04/02 10:00:32;;;;;;;;;;;;;;;;;;4421654;32;19962;-78
2023/04/02 10:02:57;;;;;;;;;;;;;;;;;;4422738;32;19941;-78
2023/04/02 10:05:22;;;;;;;;;;;;;;;;;;4433007;32;19941;-77
2023/04/02 10:07:47;;;;;;;;;;;;;;;;;;4427175;32;19932;-77
2023/04/02 10:10:12;;;;;;;;;;;;;;;;;;4435923;32;20314;-77
2023/04/02 10:12:38;;;;;;;;;;;;;;;;;;4420842;32;19957;-77
2023/04/02 10:15:03;;;;;;;;;;;;;;;;;;4420849;32;19945;-77
2023/04/02 10:17:28;;;;;;;;;;;;;;;;;;4425331;32;20318;-77
2023/04/02 10:19:53;;;;;;;;;;;;;;;;;;4425783;32;19940;-77
2023/04/02 10:22:18;;;;;;;;;;;;;;;;;;4433230;32;20012;-78
2023/04/02 10:24:44;;;;;;;;;;;;;;;;;;4426363;32;19945;-78
2023/04/02 10:27:09;;;;;;;;;;;;;;;;;;4421599;32;19937;-78
2023/04/02 10:29:34;;;;;;;;;;;;;;;;;;4430841;32;19941;-76
2023/04/02 10:31:59;;;;;;;;;;;;;;;;;;4418989;32;19983;-77
2023/04/02 10:34:25;;;;;;;;;;;;;;;;;;4420364;32;20310;-77
2023/04/02 10:36:50;;;;;;;;;;;;;;;;;;4420412;32;19983;-77
2023/04/02 10:39:15;;;;;;;;;;;;;;;;;;4419802;32;19947;-78
2023/04/02 10:41:40;;;;;;;;;;;;;;;;;;4422915;32;19972;-78
2023/04/02 10:44:05;;;;;;;;;;;;;;;;;;4422546;32;19933;-77
2023/04/02 10:46:30;;;;;;;;;;;;;;;;;;4424142;32;19945;-78
2023/04/02 10:48:56;;;;;;;;;;;;;;;;;;4439191;32;19989;-77
2023/04/02 10:51:21;;;;;;;;;;;;;;;;;;4438874;32;20348;-77
2023/04/02 10:53:46;;;;;;;;;;;;;;;;;;4439414;32;19937;-77
2023/04/02 10:56:11;;;;;;;;;;;;;;;;;;4438483;32;19979;-77
2023/04/02 10:58:36;;;;;;;;;;;;;;;;;;4424101;32;19936;-78
2023/04/02 11:01:01;;;;;;;;;;;;;;;;;;4420616;32;19974;-77
2023/04/02 11:03:26;;;;;;;;;;;;;;;;;;4433045;32;19997;-77
2023/04/02 11:05:51;;;;;;;;;;;;;;;;;;4437461;32;20294;-78
2023/04/02 11:08:17;;;;;;;;;;;;;;;;;;4438978;32;19937;-78
2023/04/02 11:10:42;;;;;;;;;;;;;;;;;;4423267;32;19941;-78
2023/04/02 11:13:07;;;;;;;;;;;;;;;;;;4438220;32;19932;-78
2023/04/02 11:15:32;;;;;;;;;;;;;;;;;;4421375;32;20337;-77
2023/04/02 11:17:57;;;;;;;;;;;;;;;;;;4437958;32;19933;-77
2023/04/02 11:20:22;;;;;;;;;;;;;;;;;;4420700;32;20362;-78
2023/04/02 11:22:47;;;;;;;;;;;;;;;;;;4427621;32;19956;-78
2023/04/02 11:25:12;;;;;;;;;;;;;;;;;;4439735;32;19932;-78
2023/04/02 11:27:38;;;;;;;;;;;;;;;;;;4436128;32;19940;-78
2023/04/02 11:30:03;;;;;;;;;;;;;;;;;;4422785;32;19941;-77
2023/04/02 11:32:28;;;;;;;;;;;;;;;;;;4424784;32;19970;-78
2023/04/02 11:34:53;;;;;;;;;;;;;;;;;;4426605;32;19945;-78
2023/04/02 11:37:18;;;;;;;;;;;;;;;;;;4424104;32;20223;-78
2023/04/02 11:39:43;;;;;;;;;;;;;;;;;;4435961;32;20333;-77
2023/04/02 11:42:08;;;;;;;;;;;;;;;;;;4421513;32;20334;-78
2023/04/02 11:44:34;;;;;;;;;;;;;;;;;;4442703;32;19936;-79
2023/04/02 11:46:59;;;;;;;;;;;;;;;;;;4432334;32;19974;-78
2023/04/02 11:49:24;;;;;;;;;;;;;;;;;;4425831;32;19979;-77
2023/04/02 11:51:50;;;;;;;;;;;;;;;;;;4427342;32;20322;-78
2023/04/02 11:54:16;;;;;;;;;;;;;;;;;;4421017;32;19991;-79
2023/04/02 11:56:42;;;;;;;;;;;;;;;;;;4429022;32;19928;-78
2023/04/02 11:59:07;;;;;;;;;;;;;;;;;;4423261;32;19993;-78
2023/04/02 12:01:32;;;;;;;;;;;;;;;;;;4420274;32;19945;-78
2023/04/02 12:03:58;;;;;;;;;;;;;;;;;;4426543;32;20374;-78
2023/04/02 12:06:24;;;;;;;;;;;;;;;;;;4425002;32;20324;-78
2023/04/02 12:08:50;;;;;;;;;;;;;;;;;;4426850;32;19933;-83
2023/04/02 12:11:16;;;;;;;;;;;;;;;;;;4425329;32;20021;-81
2023/04/02 12:13:41;;;;;;;;;;;;;;;;;;4424717;32;20284;-81
2023/04/02 12:16:06;;;;;;;;;;;;;;;;;;4426355;32;19944;-82
2023/04/02 12:18:31;;;;;;;;;;;;;;;;;;4425122;32;19955;-82
2023/04/02 12:20:56;;;;;;;;;;;;;;;;;;4438368;32;19941;-82
2023/04/02 12:23:21;;;;;;;;;;;;;;;;;;4423763;32;19947;-82
2023/04/02 12:25:46;;;;;;;;;;;;;;;;;;4438321;32;19937;-81
2023/04/02 12:28:13;;;;;;;;;;;;;;;;;;4423915;32;19932;-81
2023/04/02 12:30:38;;;;;;;;;;;;;;;;;;4438026;32;19933;-82
2023/04/02 12:33:03;;;;;;;;;;;;;;;;;;4440792;32;19957;-82
2023/04/02 12:35:28;;;;;;;;;;;;;;;;;;4423953;32;20343;-81
2023/04/02 12:37:53;;;;;;;;;;;;;;;;;;4423504;32;19937;-83
2023/04/02 12:40:18;;;;;;;;;;;;;;;;;;4437840;32;20318;-82
2023/04/02 12:42:44;;;;;;;;;;;;;;;;;;4437320;32;19960;-83
2023/04/02 12:45:09;;;;;;;;;;;;;;;;;;4424054;32;19933;-82
2023/04/02 12:47:35;;;;;;;;;;;;;;;;;;4435295;32;19937;-82
2023/04/02 12:50:00;;;;;;;;;;;;;;;;;;4425788;32;19972;-78
2023/04/02 12:52:28;;;;;;;;;;;;;;;;;;4433361;32;19970;-78
2023/04/02 12:54:53;;;;;;;;;;;;;;;;;;4422796;32;19932;-78
2023/04/02 12:57:20;;;;;;;;;;;;;;;;;;4437184;32;19976;-78
2023/04/02 12:59:45;;;;;;;;;;;;;;;;;;4408571;32;19971;-78
2023/04/02 13:02:10;;;;;;;;;;;;;;;;;;4407480;32;19941;-78
2023/04/02 13:04:35;;;;;;;;;;;;;;;;;;4407468;32;20331;-77
2023/04/02 13:07:00;;;;;;;;;;;;;;;;;;4408181;32;19987;-77
2023/04/02 13:09:26;;;;;;;;;;;;;;;;;;4409997;32;19961;-77
2023/04/02 13:11:51;;;;;;;;;;;;;;;;;;4423986;32;19932;-78
2023/04/02 13:14:16;;;;;;;;;;;;;;;;;;4436716;32;19933;-78
2023/04/02 13:16:41;;;;;;;;;;;;;;;;;;4422680;32;19937;-78
2023/04/02 13:19:07;;;;;;;;;;;;;;;;;;4422793;32;19947;-79
2023/04/02 13:21:32;;;;;;;;;;;;;;;;;;4437314;32;19966;-79
2023/04/02 13:23:57;;;;;;;;;;;;;;;;;;4422568;32;19937;-79
2023/04/02 13:26:23;;;;;;;;;;;;;;;;;;4422507;32;20308;-80
2023/04/02 13:28:48;;;;;;;;;;;;;;;;;;4439372;32;19933;-80
2023/04/02 13:31:13;;;;;;;;;;;;;;;;;;4426939;32;19948;-79
2023/04/02 13:33:38;;;;;;;;;;;;;;;;;;4440861;32;20285;-79
2023/04/02 13:36:03;;;;;;;;;;;;;;;;;;4430496;32;19996;-79
2023/04/02 13:38:28;;;;;;;;;;;;;;;;;;4425415;32;20313;-79
2023/04/02 13:40:53;;;;;;;;;;;;;;;;;;4422290;32;19937;-78
2023/04/02 13:43:18;;;;;;;;;;;;;;;;;;4422575;32;20326;-78
2023/04/02 13:45:44;;;;;;;;;;;;;;;;;;4436516;32;20360;-79
2023/04/02 13:48:09;;;;;;;;;;;;;;;;;;4432830;32;19937;-79
2023/04/02 13:50:34;;;;;;;;;;;;;;;;;;4414338;32;19941;-78
2023/04/02 13:52:59;;;;;;;;;;;;;;;;;;4410051;32;20093;-77
2023/04/02 13:55:25;;;;;;;;;;;;;;;;;;4428633;32;19951;-78
2023/04/02 13:57:50;;;;;;;;;;;;;;;;;;4422587;32;19997;-78
2023/04/02 14:00:16;;;;;;;;;;;;;;;;;;4412495;32;19941;-79
2023/04/02 14:02:42;;;;;;;;;;;;;;;;;;4435929;32;19941;-78
2023/04/02 14:05:07;;;;;;;;;;;;;;;;;;4429179;32;19947;-78
2023/04/02 14:07:33;;;;;;;;;;;;;;;;;;4429044;32;19941;-78
2023/04/02 14:09:58;;;;;;;;;;;;;;;;;;4436229;32;19977;-78
2023/04/02 14:12:23;;;;;;;;;;;;;;;;;;4409973;32;19937;-79
2023/04/02 14:14:48;;;;;;;;;;;;;;;;;;4418631;32;19973;-81
2023/04/02 14:17:14;;;;;;;;;;;;;;;;;;4439351;32;19937;-79
2023/04/02 14:19:39;;;;;;;;;;;;;;;;;;4422365;32;19940;-78
2023/04/02 14:22:05;;;;;;;;;;;;;;;;;;4422885;32;19971;-79
2023/04/02 14:24:30;;;;;;;;;;;;;;;;;;4422639;32;20415;-79
2023/04/02 14:26:56;;;;;;;;;;;;;;;;;;4424135;32;19990;-79
2023/04/02 14:29:21;;;;;;;;;;;;;;;;;;4424247;32;19941;-80
2023/04/02 14:31:46;;;;;;;;;;;;;;;;;;4440809;32;19976;-80
2023/04/02 14:34:11;;;;;;;;;;;;;;;;;;4444836;32;19932;-80
2023/04/02 14:36:36;;;;;;;;;;;;;;;;;;4439597;32;19976;-80
2023/04/02 14:39:03;;;;;;;;;;;;;;;;;;4428318;32;19970;-78
2023/04/02 14:41:28;;;;;;;;;;;;;;;;;;4417770;32;19993;-79
2023/04/02 14:43:53;;;;;;;;;;;;;;;;;;4426947;32;19932;-78
2023/04/02 14:46:18;;;;;;;;;;;;;;;;;;4410986;32;20347;-79
2023/04/02 14:48:43;;;;;;;;;;;;;;;;;;4414501;32;20078;-79
2023/04/02 14:51:08;;;;;;;;;;;;;;;;;;4412800;32;20299;-79
2023/04/02 14:53:36;;;;;;;;;;;;;;;;;;4410121;32;19933;-79
2023/04/02 14:56:01;;;;;;;;;;;;;;;;;;4411267;32;19969;-79
2023/04/02 14:58:26;;;;;;;;;;;;;;;;;;4437500;32;19932;-79
2023/04/02 15:00:51;;;;;;;;;;;;;;;;;;4426249;32;19968;-79
2023/04/02 15:03:16;;;;;;;;;;;;;;;;;;4422539;32;19971;-78
2023/04/02 15:05:41;;;;;;;;;;;;;;;;;;4433889;32;19936;-78
2023/04/02 15:08:06;;;;;;;;;;;;;;;;;;4423512;32;19932;-78
2023/04/02 15:10:32;;;;;;;;;;;;;;;;;;4422592;32;19937;-79
2023/04/02 15:12:57;;;;;;;;;;;;;;;;;;4424363;32;19992;-78
2023/04/02 15:15:22;;;;;;;;;;;;;;;;;;4412962;32;19950;-79
2023/04/02 15:17:47;;;;;;;;;;;;;;;;;;4431026;32;19951;-78
2023/04/02 15:20:12;;;;;;;;;;;;;;;;;;4409852;32;19968;-77
2023/04/02 15:22:38;;;;;;;;;;;;;;;;;;4422543;32;19941;-78
2023/04/02 15:25:03;;;;;;;;;;;;;;;;;;4423207;32;19937;-77
2023/04/02 15:27:28;;;;;;;;;;;;;;;;;;4422222;32;19943;-78
2023/04/02 15:29:53;;;;;;;;;;;;;;;;;;4424175;32;19933;-77
2023/04/02 15:32:18;;;;;;;;;;;;;;;;;;4408749;32;20254;-78
2023/04/02 15:34:43;;;;;;;;;;;;;;;;;;4422443;32;19981;-79
2023/04/02 15:37:08;;;;;;;;;;;;;;;;;;4422645;32;19933;-78
2023/04/02 15:39:33;;;;;;;;;;;;;;;;;;4408533;32;19989;-78
2023/04/02 15:41:59;;;;;;;;;;;;;;;;;;4434322;32;20257;-78
2023/04/02 15:44:24;;;;;;;;;;;;;;;;;;4416493;32;20036;-79
2023/04/02 15:46:49;;;;;;;;;;;;;;;;;;4430711;32;19994;-79
2023/04/02 15:49:14;;;;;;;;;;;;;;;;;;4424558;32;20222;-79
2023/04/02 15:51:39;;;;;;;;;;;;;;;;;;4424004;32;19947;-80
2023/04/02 15:54:05;;;;;;;;;;;;;;;;;;4431747;32;19951;-78
2023/04/02 15:56:30;;;;;;;;;;;;;;;;;;4437914;32;19994;-78
2023/04/02 15:58:55;;;;;;;;;;;;;;;;;;4423379;32;19941;-78
2023/04/02 16:01:20;;;;;;;;;;;;;;;;;;4437666;32;20345;-78
2023/04/02 16:03:46;;;;;;;;;;;;;;;;;;4411621;32;20273;-77
2023/04/02 16:06:15;;;;;;;;;;;;;;;;;;4416154;32;19933;-78
2023/04/02 16:08:40;;;;;;;;;;;;;;;;;;4433943;32;20372;-78
2023/04/02 16:11:05;;;;;;;;;;;;;;;;;;4422195;32;20314;-78
2023/04/02 16:13:31;;;;;;;;;;;;;;;;;;4429324;32;19981;-79
2023/04/02 16:15:56;;;;;;;;;;;;;;;;;;4426405;32;19941;-79
2023/04/02 16:18:21;;;;;;;;;;;;;;;;;;4422143;32;20300;-79
2023/04/02 16:20:46;;;;;;;;;;;;;;;;;;4420787;32;19974;-78
2023/04/02 16:23:11;;;;;;;;;;;;;;;;;;4422798;32;19941;-78
2023/04/02 16:25:36;;;;;;;;;;;;;;;;;;4420519;32;19950;-79
2023/04/02 16:28:01;;;;;;;;;;;;;;;;;;4422037;32;20066;-79
2023/04/02 16:30:27;;;;;;;;;;;;;;;;;;4420543;32;19940;-78
2023/04/02 16:32:52;;;;;;;;;;;;;;;;;;4420521;32;20056;-78